Time,TemperatureF,DewpointF,PressureIn,WindDirection,WindDirectionDegrees,WindSpeedMPH,WindSpeedGustMPH,Humidity,HourlyPrecipIn,Conditions,Clouds,dailyrainin,SoftwareType,DateUTC
2013-02-01 00:01:00,43.9,8.5,25.60,SE,135,3.4,3.4,23,0.00,,---,0.00,VWS V14.01,2013-02-01 06:01:00,
2013-02-01 00:06:00,43.3,8.0,25.60,South,180,2.7,2.7,23,0.00,,---,0.00,VWS V14.01,2013-02-01 06:06:00,
2013-02-01 00:11:00,42.6,7.4,25.60,South,180,1.3,2.0,23,0.00,,---,0.00,VWS V14.01,2013-02-01 06:11:00,
2013-02-01 00:16:00,43.0,7.7,25.63,SE,135,2.7,2.7,23,0.00,,---,0.00,VWS V14.01,2013-02-01 06:16:00,
2013-02-01 00:21:00,43.3,8.0,25.63,SE,135,4.0,4.0,23,0.00,,---,0.00,VWS V14.01,2013-02-01 06:21:00,
2013-02-01 00:26:00,43.3,8.0,25.63,SE,135,3.1,3.1,23,0.00,,---,0.00,VWS V14.01,2013-02-01 06:26:00,
2013-02-01 00:31:00,43.5,8.2,25.63,SSE,158,3.1,4.0,23,0.00,,---,0.00,VWS V14.01,2013-02-01 06:31:00,
2013-02-01 00:36:00,43.7,8.3,25.63,SE,135,4.3,4.3,23,0.00,,---,0.00,VWS V14.01,2013-02-01 06:36:00,
2013-02-01 00:41:00,43.9,8.5,25.63,SSE,158,4.9,4.9,23,0.00,,---,0.00,VWS V14.01,2013-02-01 06:41:00,
2013-02-01 00:46:00,42.8,9.4,25.60,South,180,2.5,2.5,25,0.00,,---,0.00,VWS V14.01,2013-02-01 06:46:00,
2013-02-01 00:51:00,42.8,7.6,25.60,SSE,158,2.9,3.4,23,0.00,,---,0.00,VWS V14.01,2013-02-01 06:51:00,
2013-02-01 00:56:00,42.1,9.7,25.60,ESE,112,3.6,3.6,26,0.00,,---,0.00,VWS V14.01,2013-02-01 06:56:00,
2013-02-01 01:01:00,41.9,9.5,25.63,SSW,202,2.0,2.0,26,0.00,,---,0.00,VWS V14.01,2013-02-01 07:01:00,
2013-02-01 01:06:00,41.5,9.2,25.63,South,180,2.0,2.0,26,0.00,,---,0.00,VWS V14.01,2013-02-01 07:06:00,
2013-02-01 01:11:00,41.7,9.4,25.63,SE,135,2.0,2.2,26,0.00,,---,0.00,VWS V14.01,2013-02-01 07:11:00,
2013-02-01 01:16:00,41.2,8.9,25.63,ESE,112,2.7,2.9,26,0.00,,---,0.00,VWS V14.01,2013-02-01 07:16:00,
2013-02-01 01:21:00,41.9,9.5,25.63,South,180,2.2,2.2,26,0.00,,---,0.00,VWS V14.01,2013-02-01 07:21:00,
2013-02-01 01:26:00,41.7,9.4,25.63,South,180,5.8,5.8,26,0.00,,---,0.00,VWS V14.01,2013-02-01 07:26:00,
2013-02-01 01:31:00,42.3,9.8,25.60,SSE,158,5.6,5.6,26,0.00,,---,0.00,VWS V14.01,2013-02-01 07:31:00,
2013-02-01 01:36:00,42.8,9.4,25.60,East,90,3.4,5.4,25,0.00,,---,0.00,VWS V14.01,2013-02-01 07:36:00,
2013-02-01 01:41:00,40.6,8.4,25.60,ESE,112,4.9,4.9,26,0.00,,---,0.00,VWS V14.01,2013-02-01 07:41:00,
2013-02-01 01:46:00,40.6,8.4,25.60,SSE,158,3.6,3.8,26,0.00,,---,0.00,VWS V14.01,2013-02-01 07:46:00,
2013-02-01 01:51:00,41.7,9.4,25.60,SE,135,4.9,4.9,26,0.00,,---,0.00,VWS V14.01,2013-02-01 07:51:00,
2013-02-01 01:56:00,42.3,9.8,25.60,SE,135,5.4,5.4,26,0.00,,---,0.00,VWS V14.01,2013-02-01 07:56:00,
2013-02-01 02:01:00,42.1,9.7,25.60,SE,135,5.4,5.4,26,0.00,,---,0.00,VWS V14.01,2013-02-01 08:01:00,
2013-02-01 02:06:00,41.9,9.5,25.60,SE,135,4.9,5.6,26,0.00,,---,0.00,VWS V14.01,2013-02-01 08:06:00,
2013-02-01 02:11:00,42.3,9.8,25.60,ESE,112,4.0,4.0,26,0.00,,---,0.00,VWS V14.01,2013-02-01 08:11:00,
2013-02-01 02:16:00,42.3,9.8,25.60,SE,135,4.3,4.9,26,0.00,,---,0.00,VWS V14.01,2013-02-01 08:16:00,
2013-02-01 02:21:00,42.3,9.8,25.60,SE,135,4.9,4.9,26,0.00,,---,0.00,VWS V14.01,2013-02-01 08:21:00,
2013-02-01 02:26:00,41.5,9.2,25.60,SSE,158,6.0,6.0,26,0.00,,---,0.00,VWS V14.01,2013-02-01 08:26:00,
2013-02-01 02:31:00,41.9,9.5,25.57,South,180,1.3,2.2,26,0.00,,---,0.00,VWS V14.01,2013-02-01 08:31:00,
2013-02-01 02:36:00,41.4,9.1,25.57,South,180,2.7,2.7,26,0.00,,---,0.00,VWS V14.01,2013-02-01 08:36:00,
2013-02-01 02:41:00,41.2,8.9,25.57,SSW,202,2.0,2.0,26,0.00,,---,0.00,VWS V14.01,2013-02-01 08:41:00,
2013-02-01 02:46:00,41.2,8.9,25.60,SSE,158,2.5,3.6,26,0.00,,---,0.00,VWS V14.01,2013-02-01 08:46:00,
2013-02-01 02:51:00,41.0,8.8,25.60,South,180,2.0,2.5,26,0.00,,---,0.00,VWS V14.01,2013-02-01 08:51:00,
2013-02-01 02:56:00,40.5,8.3,25.60,SSW,202,1.1,1.1,26,0.00,,---,0.00,VWS V14.01,2013-02-01 08:56:00,
2013-02-01 03:01:00,39.9,7.8,25.60,SSW,202,2.0,2.9,26,0.00,,---,0.00,VWS V14.01,2013-02-01 09:01:00,
2013-02-01 03:06:00,39.2,7.2,25.60,East,90,2.0,2.0,26,0.00,,---,0.00,VWS V14.01,2013-02-01 09:06:00,
2013-02-01 03:11:00,38.8,6.9,25.60,SSE,158,0.9,0.9,26,0.00,,---,0.00,VWS V14.01,2013-02-01 09:11:00,
2013-02-01 03:16:00,39.0,7.1,25.60,SSW,202,0.0,0.0,26,0.00,,---,0.00,VWS V14.01,2013-02-01 09:16:00,
2013-02-01 03:21:00,39.4,7.4,25.60,SW,225,3.6,3.6,26,0.00,,---,0.00,VWS V14.01,2013-02-01 09:21:00,
2013-02-01 03:26:00,38.8,6.9,25.60,South,180,0.9,0.9,26,0.00,,---,0.00,VWS V14.01,2013-02-01 09:26:00,
2013-02-01 03:31:00,39.0,7.1,25.60,SSW,202,3.6,3.6,26,0.00,,---,0.00,VWS V14.01,2013-02-01 09:31:00,
2013-02-01 03:36:00,39.4,7.4,25.60,South,180,3.4,3.4,26,0.00,,---,0.00,VWS V14.01,2013-02-01 09:36:00,
2013-02-01 03:41:00,39.7,7.7,25.60,SSW,202,2.0,2.7,26,0.00,,---,0.00,VWS V14.01,2013-02-01 09:41:00,
2013-02-01 03:46:00,38.1,6.3,25.60,WNW,292,2.7,2.7,26,0.00,,---,0.00,VWS V14.01,2013-02-01 09:46:00,
2013-02-01 03:51:00,38.1,6.3,25.60,SSE,158,1.1,1.1,26,0.00,,---,0.00,VWS V14.01,2013-02-01 09:51:00,
2013-02-01 03:56:00,38.5,6.6,25.60,ESE,112,3.6,3.6,26,0.00,,---,0.00,VWS V14.01,2013-02-01 09:56:00,
2013-02-01 04:01:00,38.8,6.9,25.60,SE,135,2.5,2.7,26,0.00,,---,0.00,VWS V14.01,2013-02-01 10:01:00,
2013-02-01 04:06:00,39.0,7.1,25.60,SE,135,1.6,2.9,26,0.00,,---,0.00,VWS V14.01,2013-02-01 10:06:00,
2013-02-01 04:11:00,39.9,7.8,25.60,South,180,3.8,4.0,26,0.00,,---,0.00,VWS V14.01,2013-02-01 10:11:00,
2013-02-01 04:16:00,40.3,8.1,25.57,SSE,158,5.6,6.3,26,0.00,,---,0.00,VWS V14.01,2013-02-01 10:16:00,
2013-02-01 04:21:00,40.6,8.4,25.57,South,180,4.3,5.6,26,0.00,,---,0.00,VWS V14.01,2013-02-01 10:21:00,
2013-02-01 04:26:00,40.3,8.1,25.57,SSE,158,5.4,5.4,26,0.00,,---,0.00,VWS V14.01,2013-02-01 10:26:00,
2013-02-01 04:31:00,40.8,8.6,25.60,ESE,112,5.8,7.8,26,0.00,,---,0.00,VWS V14.01,2013-02-01 10:31:00,
2013-02-01 04:36:00,40.5,8.3,25.60,SSE,158,5.8,5.8,26,0.00,,---,0.00,VWS V14.01,2013-02-01 10:36:00,
2013-02-01 04:41:00,42.4,10.0,25.60,South,180,6.3,7.8,26,0.00,,---,0.00,VWS V14.01,2013-02-01 10:41:00,
2013-02-01 04:46:00,41.2,8.9,25.57,SE,135,5.8,5.8,26,0.00,,---,0.00,VWS V14.01,2013-02-01 10:46:00,
2013-02-01 04:51:00,39.7,7.7,25.57,SSE,158,3.1,6.0,26,0.00,,---,0.00,VWS V14.01,2013-02-01 10:51:00,
2013-02-01 04:56:00,38.5,6.6,25.57,WSW,248,1.6,3.4,26,0.00,,---,0.00,VWS V14.01,2013-02-01 10:56:00,
2013-02-01 05:01:00,37.8,6.0,25.57,West,270,2.0,2.5,26,0.00,,---,0.00,VWS V14.01,2013-02-01 11:01:00,
2013-02-01 05:06:00,37.6,5.8,25.57,ESE,112,3.6,3.8,26,0.00,,---,0.00,VWS V14.01,2013-02-01 11:06:00,
2013-02-01 05:11:00,37.9,8.5,25.57,South,180,2.0,2.0,29,0.00,,---,0.00,VWS V14.01,2013-02-01 11:11:00,
2013-02-01 05:16:00,38.3,8.8,25.60,SSE,158,3.4,3.4,29,0.00,,---,0.00,VWS V14.01,2013-02-01 11:16:00,
2013-02-01 05:21:00,37.9,8.5,25.60,SE,135,4.0,4.0,29,0.00,,---,0.00,VWS V14.01,2013-02-01 11:21:00,
2013-02-01 05:26:00,38.3,8.8,25.60,SE,135,3.4,3.4,29,0.00,,---,0.00,VWS V14.01,2013-02-01 11:26:00,
2013-02-01 05:31:00,37.6,8.2,25.60,ESE,112,2.0,2.5,29,0.00,,---,0.00,VWS V14.01,2013-02-01 11:31:00,
2013-02-01 05:36:00,37.8,8.4,25.60,ESE,112,4.3,4.3,29,0.00,,---,0.00,VWS V14.01,2013-02-01 11:36:00,
2013-02-01 05:41:00,37.0,7.8,25.60,ESE,112,4.3,4.3,29,0.00,,---,0.00,VWS V14.01,2013-02-01 11:41:00,
2013-02-01 05:46:00,36.7,7.4,25.60,SSE,158,4.0,4.0,29,0.00,,---,0.00,VWS V14.01,2013-02-01 11:46:00,
2013-02-01 05:51:00,37.6,8.2,25.60,SSE,158,3.8,3.8,29,0.00,,---,0.00,VWS V14.01,2013-02-01 11:51:00,
2013-02-01 05:56:00,38.7,9.2,25.60,South,180,5.6,5.6,29,0.00,,---,0.00,VWS V14.01,2013-02-01 11:56:00,
2013-02-01 06:01:00,41.5,9.2,25.60,SSE,158,6.3,6.3,26,0.00,,---,0.00,VWS V14.01,2013-02-01 12:01:00,
2013-02-01 06:06:00,42.3,9.8,25.60,SSE,158,4.7,5.4,26,0.00,,---,0.00,VWS V14.01,2013-02-01 12:06:00,
2013-02-01 06:11:00,42.3,9.8,25.60,SSE,158,4.3,4.3,26,0.00,,---,0.00,VWS V14.01,2013-02-01 12:11:00,
2013-02-01 06:16:00,42.1,9.7,25.57,SSE,158,4.7,4.7,26,0.00,,---,0.00,VWS V14.01,2013-02-01 12:16:00,
2013-02-01 06:21:00,42.4,10.0,25.57,SSW,202,3.8,3.8,26,0.00,,---,0.00,VWS V14.01,2013-02-01 12:21:00,
2013-02-01 06:26:00,41.2,8.9,25.57,South,180,5.6,5.6,26,0.00,,---,0.00,VWS V14.01,2013-02-01 12:26:00,
2013-02-01 06:31:00,41.9,9.5,25.63,South,180,5.8,7.8,26,0.00,,---,0.00,VWS V14.01,2013-02-01 12:31:00,
2013-02-01 06:36:00,43.7,10.2,25.63,SE,135,7.8,10.3,25,0.00,,---,0.00,VWS V14.01,2013-02-01 12:36:00,
2013-02-01 06:41:00,44.2,10.7,25.63,SE,135,10.5,10.7,25,0.00,,---,0.00,VWS V14.01,2013-02-01 12:41:00,
2013-02-01 06:46:00,44.2,10.7,25.63,SSE,158,8.1,8.1,25,0.00,,---,0.00,VWS V14.01,2013-02-01 12:46:00,
2013-02-01 06:51:00,44.4,10.8,25.60,SSE,158,12.5,12.8,25,0.00,,---,0.00,VWS V14.01,2013-02-01 12:51:00,
2013-02-01 06:56:00,44.6,11.0,25.60,SE,135,10.1,12.3,25,0.00,,---,0.00,VWS V14.01,2013-02-01 12:56:00,
2013-02-01 07:01:00,44.6,11.0,25.60,SE,135,12.8,12.8,25,0.00,,---,0.00,VWS V14.01,2013-02-01 13:01:00,
2013-02-01 07:06:00,44.6,11.0,25.60,South,180,10.7,10.7,25,0.00,,---,0.00,VWS V14.01,2013-02-01 13:06:00,
2013-02-01 07:11:00,44.4,10.8,25.60,SSE,158,11.9,11.9,25,0.00,,---,0.00,VWS V14.01,2013-02-01 13:11:00,
2013-02-01 07:16:00,44.6,11.0,25.60,South,180,7.6,10.3,25,0.00,,---,0.00,VWS V14.01,2013-02-01 13:16:00,
2013-02-01 07:21:00,44.2,10.7,25.60,SSE,158,12.5,12.5,25,0.00,,---,0.00,VWS V14.01,2013-02-01 13:21:00,
2013-02-01 07:26:00,44.2,10.7,25.60,South,180,9.0,9.0,25,0.00,,---,0.00,VWS V14.01,2013-02-01 13:26:00,
2013-02-01 07:31:00,44.2,10.7,25.60,SSE,158,5.4,7.2,25,0.00,,---,0.00,VWS V14.01,2013-02-01 13:31:00,
2013-02-01 07:36:00,44.4,8.9,25.60,SSE,158,7.2,7.8,23,0.00,,---,0.00,VWS V14.01,2013-02-01 13:36:00,
2013-02-01 07:41:00,44.8,8.3,25.60,SSW,202,8.1,8.5,22,0.00,,---,0.00,VWS V14.01,2013-02-01 13:41:00,
2013-02-01 07:46:00,45.3,8.7,25.63,SSE,158,13.6,13.6,22,0.00,,---,0.00,VWS V14.01,2013-02-01 13:46:00,
2013-02-01 07:51:00,45.1,8.6,25.63,SSE,158,8.7,10.3,22,0.00,,---,0.00,VWS V14.01,2013-02-01 13:51:00,
2013-02-01 07:56:00,45.1,8.6,25.63,SSE,158,7.4,7.6,22,0.00,,---,0.00,VWS V14.01,2013-02-01 13:56:00,
2013-02-01 08:01:00,45.1,8.6,25.60,SSW,202,5.4,6.5,22,0.00,,---,0.00,VWS V14.01,2013-02-01 14:01:00,
2013-02-01 08:06:00,45.9,9.2,25.60,SSE,158,6.0,6.0,22,0.00,,---,0.00,VWS V14.01,2013-02-01 14:06:00,
2013-02-01 08:11:00,46.4,9.6,25.60,South,180,7.6,8.5,22,0.00,,---,0.00,VWS V14.01,2013-02-01 14:11:00,
2013-02-01 08:16:00,46.9,10.1,25.60,SE,135,7.8,9.8,22,0.00,,---,0.00,VWS V14.01,2013-02-01 14:16:00,
2013-02-01 08:21:00,47.7,10.7,25.60,ESE,112,4.0,4.0,22,0.00,,---,0.00,VWS V14.01,2013-02-01 14:21:00,
2013-02-01 08:26:00,48.4,10.3,25.60,ESE,112,6.5,6.5,21,0.00,,---,0.00,VWS V14.01,2013-02-01 14:26:00,
2013-02-01 08:31:00,49.1,10.9,25.60,SE,135,7.4,7.4,21,0.00,,---,0.00,VWS V14.01,2013-02-01 14:31:00,
2013-02-01 08:36:00,49.8,11.5,25.60,SSE,158,8.1,8.5,21,0.00,,---,0.00,VWS V14.01,2013-02-01 14:36:00,
2013-02-01 08:41:00,50.0,11.6,25.60,SE,135,7.2,8.1,21,0.00,,---,0.00,VWS V14.01,2013-02-01 14:41:00,
2013-02-01 08:46:00,50.4,11.9,25.60,SE,135,6.3,9.4,21,0.00,,---,0.00,VWS V14.01,2013-02-01 14:46:00,
2013-02-01 08:51:00,50.9,12.4,25.60,SSE,158,11.0,11.0,21,0.00,,---,0.00,VWS V14.01,2013-02-01 14:51:00,
2013-02-01 08:56:00,51.6,13.0,25.60,South,180,10.3,10.3,21,0.00,,---,0.00,VWS V14.01,2013-02-01 14:56:00,
2013-02-01 09:01:00,52.0,13.3,25.60,SSE,158,9.8,9.8,21,0.00,,---,0.00,VWS V14.01,2013-02-01 15:01:00,
2013-02-01 09:06:00,52.3,13.6,25.60,SSE,158,10.7,13.2,21,0.00,,---,0.00,VWS V14.01,2013-02-01 15:06:00,
2013-02-01 09:11:00,52.9,14.0,25.60,SSE,158,10.3,10.7,21,0.00,,---,0.00,VWS V14.01,2013-02-01 15:11:00,
2013-02-01 09:16:00,53.4,14.5,25.60,SSE,158,18.1,18.1,21,0.00,,---,0.00,VWS V14.01,2013-02-01 15:16:00,
2013-02-01 09:21:00,53.6,13.5,25.60,SSE,158,10.7,10.7,20,0.00,,---,0.00,VWS V14.01,2013-02-01 15:21:00,
2013-02-01 09:26:00,54.1,14.0,25.60,ESE,112,10.3,17.5,20,0.00,,---,0.00,VWS V14.01,2013-02-01 15:26:00,
2013-02-01 09:31:00,54.9,14.6,25.60,SSE,158,10.5,10.5,20,0.00,,---,0.00,VWS V14.01,2013-02-01 15:31:00,
2013-02-01 09:36:00,55.0,14.7,25.60,SE,135,7.8,12.3,20,0.00,,---,0.00,VWS V14.01,2013-02-01 15:36:00,
2013-02-01 09:41:00,55.4,15.0,25.60,SE,135,13.0,20.1,20,0.00,,---,0.00,VWS V14.01,2013-02-01 15:41:00,
2013-02-01 09:46:00,55.6,15.2,25.60,SSE,158,9.4,10.7,20,0.00,,---,0.00,VWS V14.01,2013-02-01 15:46:00,
2013-02-01 09:51:00,56.5,15.9,25.60,SSE,158,14.3,14.3,20,0.00,,---,0.00,VWS V14.01,2013-02-01 15:51:00,
2013-02-01 09:56:00,56.8,16.2,25.60,SE,135,9.6,13.2,20,0.00,,---,0.00,VWS V14.01,2013-02-01 15:56:00,
2013-02-01 10:01:00,57.0,12.7,25.60,SSE,158,13.0,15.2,17,0.00,,---,0.00,VWS V14.01,2013-02-01 16:01:00,
2013-02-01 10:06:00,57.4,12.9,25.60,SSE,158,12.5,16.8,17,0.00,,---,0.00,VWS V14.01,2013-02-01 16:06:00,
2013-02-01 10:11:00,57.9,13.4,25.60,South,180,8.7,13.0,17,0.00,,---,0.00,VWS V14.01,2013-02-01 16:11:00,
2013-02-01 10:16:00,58.1,13.5,25.60,SSE,158,8.1,10.5,17,0.00,,---,0.00,VWS V14.01,2013-02-01 16:16:00,
2013-02-01 10:21:00,58.3,13.7,25.60,SSE,158,11.9,14.5,17,0.00,,---,0.00,VWS V14.01,2013-02-01 16:21:00,
2013-02-01 10:26:00,59.2,14.4,25.60,South,180,9.8,11.2,17,0.00,,---,0.00,VWS V14.01,2013-02-01 16:26:00,
2013-02-01 10:31:00,59.0,14.3,25.60,SSE,158,10.1,12.8,17,0.00,,---,0.00,VWS V14.01,2013-02-01 16:31:00,
2013-02-01 10:36:00,59.9,15.0,25.60,SE,135,10.7,10.7,17,0.00,,---,0.00,VWS V14.01,2013-02-01 16:36:00,
2013-02-01 10:41:00,60.4,15.4,25.60,SSE,158,10.7,10.7,17,0.00,,---,0.00,VWS V14.01,2013-02-01 16:41:00,
2013-02-01 10:46:00,60.6,15.6,25.60,SSE,158,7.8,9.6,17,0.00,,---,0.00,VWS V14.01,2013-02-01 16:46:00,
2013-02-01 10:51:00,61.3,14.8,25.60,SSE,158,3.8,6.5,16,0.00,,---,0.00,VWS V14.01,2013-02-01 16:51:00,
2013-02-01 10:56:00,62.2,15.5,25.60,South,180,5.8,9.6,16,0.00,,---,0.00,VWS V14.01,2013-02-01 16:56:00,
2013-02-01 11:01:00,62.2,15.5,25.60,South,180,5.6,8.1,16,0.00,,---,0.00,VWS V14.01,2013-02-01 17:01:00,
2013-02-01 11:06:00,62.6,15.8,25.60,SSE,158,9.8,9.8,16,0.00,,---,0.00,VWS V14.01,2013-02-01 17:06:00,
2013-02-01 11:11:00,63.1,16.2,25.60,SE,135,13.0,15.9,16,0.00,,---,0.00,VWS V14.01,2013-02-01 17:11:00,
2013-02-01 11:16:00,63.3,16.4,25.60,SE,135,6.5,6.5,16,0.00,,---,0.00,VWS V14.01,2013-02-01 17:16:00,
2013-02-01 11:21:00,63.5,16.5,25.60,SSE,158,7.6,8.7,16,0.00,,---,0.00,VWS V14.01,2013-02-01 17:21:00,
2013-02-01 11:26:00,64.0,17.0,25.60,South,180,6.5,6.5,16,0.00,,---,0.00,VWS V14.01,2013-02-01 17:26:00,
2013-02-01 11:31:00,64.4,15.8,25.60,SE,135,6.5,8.1,15,0.00,,---,0.00,VWS V14.01,2013-02-01 17:31:00,
2013-02-01 11:36:00,64.6,15.9,25.60,SSW,202,5.6,7.4,15,0.00,,---,0.00,VWS V14.01,2013-02-01 17:36:00,
2013-02-01 11:41:00,65.5,16.6,25.60,SSE,158,7.6,8.1,15,0.00,,---,0.00,VWS V14.01,2013-02-01 17:41:00,
2013-02-01 11:46:00,65.1,16.4,25.60,South,180,7.8,9.8,15,0.00,,---,0.00,VWS V14.01,2013-02-01 17:46:00,
2013-02-01 11:51:00,66.0,17.1,25.60,ESE,112,7.8,14.3,15,0.00,,---,0.00,VWS V14.01,2013-02-01 17:51:00,
2013-02-01 11:56:00,66.6,17.5,25.60,South,180,5.4,7.6,15,0.00,,---,0.00,VWS V14.01,2013-02-01 17:56:00,
2013-02-01 12:01:00,66.2,17.2,25.60,South,180,4.9,8.1,15,0.00,,---,0.00,VWS V14.01,2013-02-01 18:01:00,
2013-02-01 12:06:00,66.4,17.4,25.60,SW,225,3.8,3.8,15,0.00,,---,0.00,VWS V14.01,2013-02-01 18:06:00,
2013-02-01 12:11:00,66.6,17.5,25.60,South,180,7.8,10.7,15,0.00,,---,0.00,VWS V14.01,2013-02-01 18:11:00,
2013-02-01 12:16:00,66.7,17.6,25.57,SW,225,7.6,9.6,15,0.00,,---,0.00,VWS V14.01,2013-02-01 18:16:00,
2013-02-01 12:21:00,65.1,16.4,25.57,SW,225,13.2,17.9,15,0.00,,---,0.00,VWS V14.01,2013-02-01 18:21:00,
2013-02-01 12:26:00,65.5,16.6,25.57,SW,225,12.8,12.8,15,0.00,,---,0.00,VWS V14.01,2013-02-01 18:26:00,
2013-02-01 12:31:00,65.7,16.8,25.57,SSW,202,10.7,10.7,15,0.00,,---,0.00,VWS V14.01,2013-02-01 18:31:00,
2013-02-01 12:36:00,66.2,17.2,25.57,SSW,202,10.7,10.7,15,0.00,,---,0.00,VWS V14.01,2013-02-01 18:36:00,
2013-02-01 12:41:00,66.4,17.4,25.57,SSE,158,10.3,10.3,15,0.00,,---,0.00,VWS V14.01,2013-02-01 18:41:00,
2013-02-01 12:46:00,66.4,17.4,25.57,SSW,202,10.1,10.1,15,0.00,,---,0.00,VWS V14.01,2013-02-01 18:46:00,
2013-02-01 12:51:00,66.0,17.1,25.57,WSW,248,13.2,15.2,15,0.00,,---,0.00,VWS V14.01,2013-02-01 18:51:00,
2013-02-01 12:56:00,66.2,17.2,25.57,SW,225,11.0,17.2,15,0.00,,---,0.00,VWS V14.01,2013-02-01 18:56:00,
2013-02-01 13:01:00,66.4,17.4,25.54,SW,225,13.6,13.6,15,0.00,,---,0.00,VWS V14.01,2013-02-01 19:01:00,
2013-02-01 13:06:00,66.6,17.5,25.54,SSW,202,7.4,10.5,15,0.00,,---,0.00,VWS V14.01,2013-02-01 19:06:00,
2013-02-01 13:11:00,66.6,17.5,25.54,SSW,202,9.6,11.4,15,0.00,,---,0.00,VWS V14.01,2013-02-01 19:11:00,
2013-02-01 13:16:00,66.6,17.5,25.54,SW,225,12.3,12.5,15,0.00,,---,0.00,VWS V14.01,2013-02-01 19:16:00,
2013-02-01 13:21:00,66.7,17.6,25.54,SSW,202,10.7,10.7,15,0.00,,---,0.00,VWS V14.01,2013-02-01 19:21:00,
2013-02-01 13:26:00,67.1,17.9,25.54,SSW,202,15.4,15.4,15,0.00,,---,0.00,VWS V14.01,2013-02-01 19:26:00,
2013-02-01 13:31:00,66.9,17.8,25.51,SW,225,6.5,9.8,15,0.00,,---,0.00,VWS V14.01,2013-02-01 19:31:00,
2013-02-01 13:36:00,66.7,17.6,25.51,SE,135,6.5,8.5,15,0.00,,---,0.00,VWS V14.01,2013-02-01 19:36:00,
2013-02-01 13:41:00,67.1,17.9,25.51,SSW,202,5.8,8.7,15,0.00,,---,0.00,VWS V14.01,2013-02-01 19:41:00,
2013-02-01 13:46:00,66.9,17.8,25.54,SW,225,13.2,13.4,15,0.00,,---,0.00,VWS V14.01,2013-02-01 19:46:00,
2013-02-01 13:51:00,67.3,18.1,25.54,SW,225,10.3,10.3,15,0.00,,---,0.00,VWS V14.01,2013-02-01 19:51:00,
2013-02-01 13:56:00,66.6,17.5,25.54,SSW,202,10.3,17.7,15,0.00,,---,0.00,VWS V14.01,2013-02-01 19:56:00,
2013-02-01 14:01:00,67.1,17.9,25.51,South,180,7.8,9.8,15,0.00,,---,0.00,VWS V14.01,2013-02-01 20:01:00,
2013-02-01 14:06:00,67.8,18.5,25.51,SW,225,6.0,6.0,15,0.00,,---,0.00,VWS V14.01,2013-02-01 20:06:00,
2013-02-01 14:11:00,67.6,18.4,25.51,SW,225,13.0,13.2,15,0.00,,---,0.00,VWS V14.01,2013-02-01 20:11:00,
2013-02-01 14:16:00,67.5,18.2,25.51,SW,225,12.5,12.5,15,0.00,,---,0.00,VWS V14.01,2013-02-01 20:16:00,
2013-02-01 14:21:00,67.3,18.1,25.54,SW,225,15.4,15.4,15,0.00,,---,0.00,VWS V14.01,2013-02-01 20:21:00,
2013-02-01 14:26:00,66.6,17.5,25.54,SW,225,13.0,14.8,15,0.00,,---,0.00,VWS V14.01,2013-02-01 20:26:00,
2013-02-01 14:31:00,68.2,18.8,25.54,SW,225,9.8,9.8,15,0.00,,---,0.00,VWS V14.01,2013-02-01 20:31:00,
2013-02-01 14:36:00,68.2,18.8,25.54,SSW,202,6.9,13.0,15,0.00,,---,0.00,VWS V14.01,2013-02-01 20:36:00,
2013-02-01 14:41:00,68.0,18.7,25.54,SSW,202,12.3,12.3,15,0.00,,---,0.00,VWS V14.01,2013-02-01 20:41:00,
2013-02-01 14:46:00,68.2,18.8,25.54,SW,225,11.0,11.0,15,0.00,,---,0.00,VWS V14.01,2013-02-01 20:46:00,
2013-02-01 14:51:00,68.0,18.7,25.54,SW,225,11.4,11.4,15,0.00,,---,0.00,VWS V14.01,2013-02-01 20:51:00,
2013-02-01 14:56:00,67.8,18.5,25.54,South,180,9.8,15.4,15,0.00,,---,0.00,VWS V14.01,2013-02-01 20:56:00,
2013-02-01 15:01:00,67.8,18.5,25.54,SSW,202,5.6,8.5,15,0.00,,---,0.00,VWS V14.01,2013-02-01 21:01:00,
2013-02-01 15:06:00,68.2,18.8,25.54,SSW,202,6.5,6.5,15,0.00,,---,0.00,VWS V14.01,2013-02-01 21:06:00,
2013-02-01 15:11:00,67.8,18.5,25.54,SW,225,14.8,14.8,15,0.00,,---,0.00,VWS V14.01,2013-02-01 21:11:00,
2013-02-01 15:16:00,67.6,18.4,25.54,SW,225,12.5,16.8,15,0.00,,---,0.00,VWS V14.01,2013-02-01 21:16:00,
2013-02-01 15:21:00,67.8,18.5,25.54,West,270,10.1,10.1,15,0.00,,---,0.00,VWS V14.01,2013-02-01 21:21:00,
2013-02-01 15:26:00,67.5,18.2,25.54,SW,225,8.1,12.3,15,0.00,,---,0.00,VWS V14.01,2013-02-01 21:26:00,
2013-02-01 15:31:00,67.8,18.5,25.51,SW,225,10.1,13.9,15,0.00,,---,0.00,VWS V14.01,2013-02-01 21:31:00,
2013-02-01 15:36:00,67.3,18.1,25.51,SSW,202,7.6,7.6,15,0.00,,---,0.00,VWS V14.01,2013-02-01 21:36:00,
2013-02-01 15:41:00,67.5,18.2,25.51,SW,225,12.8,12.8,15,0.00,,---,0.00,VWS V14.01,2013-02-01 21:41:00,
2013-02-01 15:46:00,67.1,17.9,25.48,SSW,202,9.6,10.3,15,0.00,,---,0.00,VWS V14.01,2013-02-01 21:46:00,
2013-02-01 15:51:00,67.6,18.4,25.48,SW,225,13.6,13.6,15,0.00,,---,0.00,VWS V14.01,2013-02-01 21:51:00,
2013-02-01 15:56:00,66.4,17.4,25.48,SW,225,13.2,13.2,15,0.00,,---,0.00,VWS V14.01,2013-02-01 21:56:00,
2013-02-01 16:01:00,66.4,17.4,25.48,SW,225,12.8,12.8,15,0.00,,---,0.00,VWS V14.01,2013-02-01 22:01:00,
2013-02-01 16:06:00,66.2,17.2,25.48,SW,225,7.8,10.1,15,0.00,,---,0.00,VWS V14.01,2013-02-01 22:06:00,
2013-02-01 16:11:00,66.2,17.2,25.48,SW,225,13.2,13.2,15,0.00,,---,0.00,VWS V14.01,2013-02-01 22:11:00,
2013-02-01 16:16:00,66.4,17.4,25.48,South,180,10.3,11.2,15,0.00,,---,0.00,VWS V14.01,2013-02-01 22:16:00,
2013-02-01 16:21:00,66.6,17.5,25.48,SSW,202,11.9,12.8,15,0.00,,---,0.00,VWS V14.01,2013-02-01 22:21:00,
2013-02-01 16:26:00,66.7,17.6,25.48,South,180,7.8,7.8,15,0.00,,---,0.00,VWS V14.01,2013-02-01 22:26:00,
2013-02-01 16:31:00,66.6,17.5,25.45,SW,225,10.5,10.5,15,0.00,,---,0.00,VWS V14.01,2013-02-01 22:31:00,
2013-02-01 16:36:00,66.7,17.6,25.45,SSW,202,5.4,10.3,15,0.00,,---,0.00,VWS V14.01,2013-02-01 22:36:00,
2013-02-01 16:41:00,66.4,17.4,25.45,SSW,202,6.3,8.5,15,0.00,,---,0.00,VWS V14.01,2013-02-01 22:41:00,
2013-02-01 16:46:00,66.0,17.1,25.48,SW,225,12.3,13.2,15,0.00,,---,0.00,VWS V14.01,2013-02-01 22:46:00,
2013-02-01 16:51:00,65.7,16.8,25.48,South,180,8.1,9.8,15,0.00,,---,0.00,VWS V14.01,2013-02-01 22:51:00,
2013-02-01 16:56:00,65.7,16.8,25.48,SSW,202,11.9,11.9,15,0.00,,---,0.00,VWS V14.01,2013-02-01 22:56:00,
2013-02-01 17:01:00,65.7,16.8,25.48,SW,225,13.4,14.1,15,0.00,,---,0.00,VWS V14.01,2013-02-01 23:01:00,
2013-02-01 17:06:00,65.8,16.9,25.45,South,180,7.6,7.6,15,0.00,,---,0.00,VWS V14.01,2013-02-01 23:06:00,
2013-02-01 17:11:00,65.3,16.5,25.45,SW,225,10.5,10.5,15,0.00,,---,0.00,VWS V14.01,2013-02-01 23:11:00,
2013-02-01 17:16:00,65.5,16.6,25.48,SSW,202,7.6,7.6,15,0.00,,---,0.00,VWS V14.01,2013-02-01 23:16:00,
2013-02-01 17:21:00,65.8,16.9,25.48,SSW,202,5.6,5.8,15,0.00,,---,0.00,VWS V14.01,2013-02-01 23:21:00,
2013-02-01 17:26:00,65.5,16.6,25.48,South,180,6.9,6.9,15,0.00,,---,0.00,VWS V14.01,2013-02-01 23:26:00,
2013-02-01 17:31:00,64.4,15.8,25.48,SSW,202,7.4,9.8,15,0.00,,---,0.00,VWS V14.01,2013-02-01 23:31:00,
2013-02-01 17:36:00,64.4,15.8,25.48,SSW,202,8.5,10.5,15,0.00,,---,0.00,VWS V14.01,2013-02-01 23:36:00,
2013-02-01 17:41:00,64.2,17.1,25.48,South,180,7.2,9.2,16,0.00,,---,0.00,VWS V14.01,2013-02-01 23:41:00,
2013-02-01 17:46:00,63.5,16.5,25.48,SSW,202,5.6,5.6,16,0.00,,---,0.00,VWS V14.01,2013-02-01 23:46:00,
2013-02-01 17:51:00,63.0,16.1,25.48,SW,225,6.0,6.0,16,0.00,,---,0.00,VWS V14.01,2013-02-01 23:51:00,
2013-02-01 17:56:00,62.4,15.7,25.48,SW,225,7.8,8.7,16,0.00,,---,0.00,VWS V14.01,2013-02-01 23:56:00,
2013-02-01 18:01:00,61.7,15.1,25.48,SSW,202,4.9,5.4,16,0.00,,---,0.00,VWS V14.01,2013-02-02 00:01:00,
2013-02-01 18:06:00,61.0,14.5,25.48,SSW,202,3.8,3.8,16,0.00,,---,0.00,VWS V14.01,2013-02-02 00:06:00,
2013-02-01 18:11:00,60.6,15.6,25.48,SSW,202,3.4,4.0,17,0.00,,---,0.00,VWS V14.01,2013-02-02 00:11:00,
2013-02-01 18:16:00,60.1,15.1,25.48,South,180,5.8,5.8,17,0.00,,---,0.00,VWS V14.01,2013-02-02 00:16:00,
2013-02-01 18:21:00,59.4,14.6,25.48,South,180,3.6,3.6,17,0.00,,---,0.00,VWS V14.01,2013-02-02 00:21:00,
2013-02-01 18:26:00,58.5,13.8,25.48,South,180,5.8,5.8,17,0.00,,---,0.00,VWS V14.01,2013-02-02 00:26:00,
2013-02-01 18:31:00,58.3,13.7,25.48,South,180,7.4,7.4,17,0.00,,---,0.00,VWS V14.01,2013-02-02 00:31:00,
2013-02-01 18:36:00,57.2,12.8,25.48,SSE,158,6.5,6.5,17,0.00,,---,0.00,VWS V14.01,2013-02-02 00:36:00,
2013-02-01 18:41:00,56.8,12.5,25.48,SSE,158,6.3,6.3,17,0.00,,---,0.00,VWS V14.01,2013-02-02 00:41:00,
2013-02-01 18:46:00,56.5,12.2,25.51,South,180,7.6,7.6,17,0.00,,---,0.00,VWS V14.01,2013-02-02 00:46:00,
2013-02-01 18:51:00,56.3,12.1,25.51,East,90,6.7,7.4,17,0.00,,---,0.00,VWS V14.01,2013-02-02 00:51:00,
2013-02-01 18:56:00,55.8,11.6,25.51,South,180,5.4,5.8,17,0.00,,---,0.00,VWS V14.01,2013-02-02 00:56:00,
2013-02-01 19:01:00,55.6,11.5,25.51,SSW,202,5.4,5.4,17,0.00,,---,0.00,VWS V14.01,2013-02-02 01:01:00,
2013-02-01 19:06:00,54.9,12.2,25.51,South,180,3.6,4.0,18,0.00,,---,0.00,VWS V14.01,2013-02-02 01:06:00,
2013-02-01 19:11:00,54.3,11.7,25.51,SSE,158,4.0,4.3,18,0.00,,---,0.00,VWS V14.01,2013-02-02 01:11:00,
2013-02-01 19:16:00,53.8,11.3,25.51,SSW,202,3.8,5.8,18,0.00,,---,0.00,VWS V14.01,2013-02-02 01:16:00,
2013-02-01 19:21:00,53.6,11.1,25.51,South,180,3.8,4.3,18,0.00,,---,0.00,VWS V14.01,2013-02-02 01:21:00,
2013-02-01 19:26:00,53.4,11.0,25.51,SSW,202,6.3,6.3,18,0.00,,---,0.00,VWS V14.01,2013-02-02 01:26:00,
2013-02-01 19:31:00,53.4,11.0,25.54,South,180,6.7,6.7,18,0.00,,---,0.00,VWS V14.01,2013-02-02 01:31:00,
2013-02-01 19:36:00,53.4,11.0,25.54,SSW,202,6.5,7.6,18,0.00,,---,0.00,VWS V14.01,2013-02-02 01:36:00,
2013-02-01 19:41:00,53.2,10.9,25.54,SSE,158,7.4,8.1,18,0.00,,---,0.00,VWS V14.01,2013-02-02 01:41:00,
2013-02-01 19:46:00,53.1,10.7,25.54,South,180,6.3,7.6,18,0.00,,---,0.00,VWS V14.01,2013-02-02 01:46:00,
2013-02-01 19:51:00,52.7,10.4,25.54,SSE,158,7.4,7.4,18,0.00,,---,0.00,VWS V14.01,2013-02-02 01:51:00,
2013-02-01 19:56:00,52.2,10.0,25.54,South,180,5.6,6.0,18,0.00,,---,0.00,VWS V14.01,2013-02-02 01:56:00,
2013-02-01 20:01:00,52.0,9.8,25.54,SW,225,4.9,5.8,18,0.00,,---,0.00,VWS V14.01,2013-02-02 02:01:00,
2013-02-01 20:06:00,51.3,10.4,25.54,SSE,158,5.4,7.4,19,0.00,,---,0.00,VWS V14.01,2013-02-02 02:06:00,
2013-02-01 20:11:00,51.3,10.4,25.54,SSE,158,7.2,7.6,19,0.00,,---,0.00,VWS V14.01,2013-02-02 02:11:00,
2013-02-01 20:16:00,51.3,10.4,25.54,South,180,6.7,6.7,19,0.00,,---,0.00,VWS V14.01,2013-02-02 02:16:00,
2013-02-01 20:21:00,51.1,10.3,25.54,South,180,5.6,5.8,19,0.00,,---,0.00,VWS V14.01,2013-02-02 02:21:00,
2013-02-01 20:26:00,50.9,10.1,25.54,South,180,5.4,8.1,19,0.00,,---,0.00,VWS V14.01,2013-02-02 02:26:00,
2013-02-01 20:31:00,50.5,9.8,25.54,SSE,158,5.8,6.3,19,0.00,,---,0.00,VWS V14.01,2013-02-02 02:31:00,
2013-02-01 20:36:00,50.2,9.5,25.54,South,180,5.6,5.6,19,0.00,,---,0.00,VWS V14.01,2013-02-02 02:36:00,
2013-02-01 20:41:00,50.2,9.5,25.54,SSE,158,4.3,5.6,19,0.00,,---,0.00,VWS V14.01,2013-02-02 02:41:00,
2013-02-01 20:46:00,50.5,9.8,25.54,SSW,202,6.3,7.6,19,0.00,,---,0.00,VWS V14.01,2013-02-02 02:46:00,
2013-02-01 20:51:00,50.5,9.8,25.54,South,180,3.6,4.9,19,0.00,,---,0.00,VWS V14.01,2013-02-02 02:51:00,
2013-02-01 20:56:00,50.2,9.5,25.54,South,180,6.3,6.3,19,0.00,,---,0.00,VWS V14.01,2013-02-02 02:56:00,
2013-02-01 21:01:00,50.5,9.8,25.54,South,180,5.8,6.5,19,0.00,,---,0.00,VWS V14.01,2013-02-02 03:01:00,
2013-02-01 21:06:00,51.3,10.4,25.54,South,180,5.8,7.4,19,0.00,,---,0.00,VWS V14.01,2013-02-02 03:06:00,
2013-02-01 21:11:00,52.0,9.8,25.54,South,180,6.0,7.2,18,0.00,,---,0.00,VWS V14.01,2013-02-02 03:11:00,
2013-02-01 21:16:00,52.2,10.0,25.54,South,180,5.8,6.0,18,0.00,,---,0.00,VWS V14.01,2013-02-02 03:16:00,
2013-02-01 21:21:00,51.6,10.7,25.54,South,180,4.0,4.9,19,0.00,,---,0.00,VWS V14.01,2013-02-02 03:21:00,
2013-02-01 21:26:00,50.4,9.7,25.54,South,180,3.6,4.0,19,0.00,,---,0.00,VWS V14.01,2013-02-02 03:26:00,
2013-02-01 21:31:00,50.2,9.5,25.54,South,180,5.4,6.0,19,0.00,,---,0.00,VWS V14.01,2013-02-02 03:31:00,
2013-02-01 21:36:00,50.4,9.7,25.54,South,180,6.5,7.8,19,0.00,,---,0.00,VWS V14.01,2013-02-02 03:36:00,
2013-02-01 21:41:00,50.4,9.7,25.54,South,180,6.5,6.5,19,0.00,,---,0.00,VWS V14.01,2013-02-02 03:41:00,
2013-02-01 21:46:00,50.4,9.7,25.57,South,180,6.3,6.3,19,0.00,,---,0.00,VWS V14.01,2013-02-02 03:46:00,
2013-02-01 21:51:00,50.5,9.8,25.57,South,180,5.4,6.3,19,0.00,,---,0.00,VWS V14.01,2013-02-02 03:51:00,
2013-02-01 21:56:00,50.2,9.5,25.57,SSE,158,6.9,6.9,19,0.00,,---,0.00,VWS V14.01,2013-02-02 03:56:00,
2013-02-01 22:01:00,50.2,9.5,25.57,SSE,158,8.1,8.1,19,0.00,,---,0.00,VWS V14.01,2013-02-02 04:01:00,
2013-02-01 22:06:00,50.7,10.0,25.57,SSE,158,5.8,7.4,19,0.00,,---,0.00,VWS V14.01,2013-02-02 04:06:00,
2013-02-01 22:11:00,50.7,10.0,25.57,SE,135,5.8,7.2,19,0.00,,---,0.00,VWS V14.01,2013-02-02 04:11:00,
2013-02-01 22:16:00,50.7,10.0,25.57,SE,135,7.8,7.8,19,0.00,,---,0.00,VWS V14.01,2013-02-02 04:16:00,
2013-02-01 22:21:00,50.4,9.7,25.54,South,180,8.5,8.5,19,0.00,,---,0.00,VWS V14.01,2013-02-02 04:21:00,
2013-02-01 22:26:00,50.9,10.1,25.54,SSE,158,8.1,8.1,19,0.00,,---,0.00,VWS V14.01,2013-02-02 04:26:00,
2013-02-01 22:31:00,51.4,10.6,25.57,SE,135,8.1,8.5,19,0.00,,---,0.00,VWS V14.01,2013-02-02 04:31:00,
2013-02-01 22:36:00,52.2,10.0,25.57,SSE,158,7.4,7.4,18,0.00,,---,0.00,VWS V14.01,2013-02-02 04:36:00,
2013-02-01 22:41:00,52.9,10.6,25.57,South,180,6.0,6.5,18,0.00,,---,0.00,VWS V14.01,2013-02-02 04:41:00,
2013-02-01 22:46:00,51.1,10.3,25.54,South,180,4.7,4.7,19,0.00,,---,0.00,VWS V14.01,2013-02-02 04:46:00,
2013-02-01 22:51:00,50.2,9.5,25.54,SSW,202,5.6,6.5,19,0.00,,---,0.00,VWS V14.01,2013-02-02 04:51:00,
2013-02-01 22:56:00,49.5,8.9,25.54,South,180,6.5,7.6,19,0.00,,---,0.00,VWS V14.01,2013-02-02 04:56:00,
2013-02-01 23:00:00,48.7,8.3,25.54,South,180,7.6,7.6,19,0.00,,---,0.00,VWS V14.01,2013-02-02 05:00:00,
2013-02-01 23:01:00,48.7,8.3,25.54,South,180,8.5,9.8,19,0.00,,---,0.00,VWS V14.01,2013-02-02 05:01:00,
2013-02-01 23:06:00,48.4,8.0,25.54,SSE,158,8.5,8.5,19,0.00,,---,0.00,VWS V14.01,2013-02-02 05:06:00,
2013-02-01 23:11:00,48.4,8.0,25.54,SSE,158,8.5,8.5,19,0.00,,---,0.00,VWS V14.01,2013-02-02 05:11:00,
2013-02-01 23:15:00,48.9,8.5,25.54,SSE,158,7.6,7.6,19,0.00,,---,0.00,VWS V14.01,2013-02-02 05:15:00,
2013-02-01 23:20:00,48.9,8.5,25.54,South,180,4.0,4.0,19,0.00,,---,0.00,VWS V14.01,2013-02-02 05:20:00,
2013-02-01 23:25:00,49.5,8.9,25.54,SSE,158,6.0,6.0,19,0.00,,---,0.00,VWS V14.01,2013-02-02 05:25:00,
2013-02-01 23:30:00,50.4,9.7,25.54,SSE,158,6.5,6.5,19,0.00,,---,0.00,VWS V14.01,2013-02-02 05:30:00,
2013-02-01 23:35:00,50.9,10.1,25.54,SSE,158,6.3,7.2,19,0.00,,---,0.00,VWS V14.01,2013-02-02 05:35:00,
2013-02-01 23:40:00,51.1,10.3,25.54,SSE,158,5.6,5.6,19,0.00,,---,0.00,VWS V14.01,2013-02-02 05:40:00,
2013-02-01 23:45:00,51.4,10.6,25.54,South,180,5.4,5.4,19,0.00,,---,0.00,VWS V14.01,2013-02-02 05:45:00,
2013-02-01 23:50:00,51.4,10.6,25.57,South,180,5.8,5.8,19,0.00,,---,0.00,VWS V14.01,2013-02-02 05:50:00,
2013-02-01 23:55:00,51.6,10.7,25.57,South,180,4.0,4.7,19,0.00,,---,20.59,VWS V14.01,2013-02-02 05:55:00,